sensor_id;sensor_type;location;lat;lon;timestamp;pressure;altitude;pressure_sealevel;temperature;humidity
28004;BME280;15330;51.234;6.754;2023-04-24T00:00:12;99617.03;;;11.03;98.78
28004;BME280;15330;51.234;6.754;2023-04-24T00:02:44;99603.94;;;11.15;98.85
28004;BME280;15330;51.234;6.754;2023-04-24T00:05:16;99605.56;;;11.10;98.58
28004;BME280;15330;51.234;6.754;2023-04-24T00:07:44;99606.31;;;11.03;98.58
28004;BME280;15330;51.234;6.754;2023-04-24T00:10:10;99600.13;;;11.03;98.25
28004;BME280;15330;51.234;6.754;2023-04-24T00:12:36;99607.03;;;10.91;98.56
28004;BME280;15330;51.234;6.754;2023-04-24T00:15:02;99607.88;;;10.91;98.78
28004;BME280;15330;51.234;6.754;2023-04-24T00:17:28;99610.13;;;10.88;98.30
28004;BME280;15330;51.234;6.754;2023-04-24T00:19:53;99593.88;;;10.89;98.39
28004;BME280;15330;51.234;6.754;2023-04-24T00:22:26;99608.16;;;10.75;99.15
28004;BME280;15330;51.234;6.754;2023-04-24T00:24:53;99612.16;;;10.86;98.75
28004;BME280;15330;51.234;6.754;2023-04-24T00:27:18;99611.06;;;10.80;98.08
28004;BME280;15330;51.234;6.754;2023-04-24T00:29:43;99609.19;;;10.74;98.11
28004;BME280;15330;51.234;6.754;2023-04-24T00:32:09;99615.59;;;10.80;98.10
28004;BME280;15330;51.234;6.754;2023-04-24T00:34:34;99614.59;;;10.59;98.37
28004;BME280;15330;51.234;6.754;2023-04-24T00:37:00;99619.72;;;10.54;98.57
28004;BME280;15330;51.234;6.754;2023-04-24T00:39:26;99640.00;;;10.49;98.23
28004;BME280;15330;51.234;6.754;2023-04-24T00:41:52;99622.84;;;10.58;98.11
28004;BME280;15330;51.234;6.754;2023-04-24T00:44:17;99621.56;;;10.54;98.79
28004;BME280;15330;51.234;6.754;2023-04-24T00:46:43;99620.59;;;10.61;98.62
28004;BME280;15330;51.234;6.754;2023-04-24T00:49:08;99621.50;;;10.47;99.66
28004;BME280;15330;51.234;6.754;2023-04-24T00:51:34;99619.78;;;10.61;99.47
28004;BME280;15330;51.234;6.754;2023-04-24T00:54:00;99614.91;;;10.71;99.15
28004;BME280;15330;51.234;6.754;2023-04-24T00:56:26;99621.63;;;10.60;99.06
28004;BME280;15330;51.234;6.754;2023-04-24T00:58:52;99617.72;;;10.63;98.84
28004;BME280;15330;51.234;6.754;2023-04-24T01:01:21;99624.78;;;10.71;98.65
28004;BME280;15330;51.234;6.754;2023-04-24T01:03:49;99621.09;;;10.72;99.22
28004;BME280;15330;51.234;6.754;2023-04-24T01:06:16;99622.56;;;10.74;98.67
28004;BME280;15330;51.234;6.754;2023-04-24T01:08:42;99624.06;;;10.55;98.40
28004;BME280;15330;51.234;6.754;2023-04-24T01:11:08;99620.69;;;10.47;98.02
28004;BME280;15330;51.234;6.754;2023-04-24T01:13:34;99622.25;;;10.41;98.30
28004;BME280;15330;51.234;6.754;2023-04-24T01:16:00;99619.44;;;10.28;99.18
28004;BME280;15330;51.234;6.754;2023-04-24T01:18:26;99623.53;;;10.24;99.27
28004;BME280;15330;51.234;6.754;2023-04-24T01:20:53;99611.28;;;10.15;99.55
28004;BME280;15330;51.234;6.754;2023-04-24T01:23:22;99621.53;;;10.11;100.00
28004;BME280;15330;51.234;6.754;2023-04-24T01:25:48;99628.81;;;10.03;100.00
28004;BME280;15330;51.234;6.754;2023-04-24T01:28:14;99625.16;;;10.04;100.00
28004;BME280;15330;51.234;6.754;2023-04-24T01:30:39;99617.56;;;9.86;100.00
28004;BME280;15330;51.234;6.754;2023-04-24T01:33:05;99622.78;;;9.79;100.00
28004;BME280;15330;51.234;6.754;2023-04-24T01:35:31;99624.00;;;9.77;100.00
28004;BME280;15330;51.234;6.754;2023-04-24T01:37:57;99625.41;;;9.73;100.00
28004;BME280;15330;51.234;6.754;2023-04-24T01:40:23;99624.75;;;9.71;100.00
28004;BME280;15330;51.234;6.754;2023-04-24T01:42:48;99620.78;;;9.67;100.00
28004;BME280;15330;51.234;6.754;2023-04-24T01:45:14;99614.72;;;9.73;100.00
28004;BME280;15330;51.234;6.754;2023-04-24T01:47:39;99623.16;;;9.76;100.00
28004;BME280;15330;51.234;6.754;2023-04-24T01:50:06;99624.56;;;9.57;100.00
28004;BME280;15330;51.234;6.754;2023-04-24T01:52:31;99625.59;;;9.56;100.00
28004;BME280;15330;51.234;6.754;2023-04-24T01:55:01;99626.88;;;9.61;100.00
28004;BME280;15330;51.234;6.754;2023-04-24T01:57:28;99639.69;;;9.65;100.00
28004;BME280;15330;51.234;6.754;2023-04-24T01:59:55;99634.81;;;9.54;100.00
28004;BME280;15330;51.234;6.754;2023-04-24T02:02:20;99631.09;;;9.70;100.00
28004;BME280;15330;51.234;6.754;2023-04-24T02:04:48;99634.53;;;9.64;100.00
28004;BME280;15330;51.234;6.754;2023-04-24T02:07:13;99631.28;;;9.68;100.00
28004;BME280;15330;51.234;6.754;2023-04-24T02:09:39;99626.34;;;9.65;100.00
28004;BME280;15330;51.234;6.754;2023-04-24T02:12:04;99623.84;;;9.64;100.00
28004;BME280;15330;51.234;6.754;2023-04-24T02:14:29;99638.22;;;9.63;100.00
28004;BME280;15330;51.234;6.754;2023-04-24T02:16:55;99619.63;;;9.54;100.00
28004;BME280;15330;51.234;6.754;2023-04-24T02:19:20;99618.66;;;9.77;100.00
28004;BME280;15330;51.234;6.754;2023-04-24T02:21:45;99624.94;;;9.69;100.00
28004;BME280;15330;51.234;6.754;2023-04-24T02:24:11;99621.63;;;9.67;100.00
28004;BME280;15330;51.234;6.754;2023-04-24T02:26:36;99623.66;;;9.65;100.00
28004;BME280;15330;51.234;6.754;2023-04-24T02:29:01;99628.53;;;9.62;100.00
28004;BME280;15330;51.234;6.754;2023-04-24T02:31:27;99611.75;;;9.68;100.00
28004;BME280;15330;51.234;6.754;2023-04-24T02:33:52;99615.38;;;9.60;100.00
28004;BME280;15330;51.234;6.754;2023-04-24T02:36:18;99616.03;;;9.62;100.00
28004;BME280;15330;51.234;6.754;2023-04-24T02:38:43;99624.84;;;9.63;100.00
28004;BME280;15330;51.234;6.754;2023-04-24T02:41:08;99621.44;;;9.69;100.00
28004;BME280;15330;51.234;6.754;2023-04-24T02:43:34;99626.53;;;9.64;100.00
28004;BME280;15330;51.234;6.754;2023-04-24T02:46:00;99622.56;;;9.60;100.00
28004;BME280;15330;51.234;6.754;2023-04-24T02:48:25;99623.19;;;9.62;100.00
28004;BME280;15330;51.234;6.754;2023-04-24T02:50:51;99621.00;;;9.65;100.00
28004;BME280;15330;51.234;6.754;2023-04-24T02:53:16;99617.28;;;9.66;100.00
28004;BME280;15330;51.234;6.754;2023-04-24T02:55:42;99623.09;;;9.70;100.00
28004;BME280;15330;51.234;6.754;2023-04-24T02:58:07;99630.03;;;9.64;100.00
28004;BME280;15330;51.234;6.754;2023-04-24T03:00:33;99626.13;;;9.67;100.00
28004;BME280;15330;51.234;6.754;2023-04-24T03:02:58;99641.72;;;9.63;100.00
28004;BME280;15330;51.234;6.754;2023-04-24T03:05:24;99640.22;;;9.61;100.00
28004;BME280;15330;51.234;6.754;2023-04-24T03:07:49;99638.09;;;9.71;100.00
28004;BME280;15330;51.234;6.754;2023-04-24T03:10:15;99640.22;;;9.61;100.00
28004;BME280;15330;51.234;6.754;2023-04-24T03:12:40;99643.97;;;9.66;100.00
28004;BME280;15330;51.234;6.754;2023-04-24T03:15:06;99643.16;;;9.66;100.00
28004;BME280;15330;51.234;6.754;2023-04-24T03:17:32;99643.16;;;9.66;100.00
28004;BME280;15330;51.234;6.754;2023-04-24T03:19:57;99644.09;;;9.58;100.00
28004;BME280;15330;51.234;6.754;2023-04-24T03:22:23;99638.22;;;9.63;100.00
28004;BME280;15330;51.234;6.754;2023-04-24T03:24:48;99647.78;;;9.72;100.00
28004;BME280;15330;51.234;6.754;2023-04-24T03:27:13;99655.41;;;9.75;100.00
28004;BME280;15330;51.234;6.754;2023-04-24T03:29:39;99655.59;;;9.58;100.00
28004;BME280;15330;51.234;6.754;2023-04-24T03:32:04;99651.56;;;9.63;100.00
28004;BME280;15330;51.234;6.754;2023-04-24T03:34:30;99654.66;;;9.66;100.00
28004;BME280;15330;51.234;6.754;2023-04-24T03:36:55;99643.72;;;9.61;100.00
28004;BME280;15330;51.234;6.754;2023-04-24T03:39:21;99652.38;;;9.48;100.00
28004;BME280;15330;51.234;6.754;2023-04-24T03:41:46;99657.53;;;9.65;100.00
28004;BME280;15330;51.234;6.754;2023-04-24T03:44:11;99653.94;;;9.57;100.00
28004;BME280;15330;51.234;6.754;2023-04-24T03:46:37;99650.91;;;9.61;100.00
28004;BME280;15330;51.234;6.754;2023-04-24T03:49:02;99650.53;;;9.64;100.00
28004;BME280;15330;51.234;6.754;2023-04-24T03:51:27;99647.34;;;9.53;100.00
28004;BME280;15330;51.234;6.754;2023-04-24T03:53:55;99660.41;;;9.63;100.00
28004;BME280;15330;51.234;6.754;2023-04-24T03:56:20;99651.00;;;9.52;100.00
28004;BME280;15330;51.234;6.754;2023-04-24T03:58:46;99650.25;;;9.58;100.00
28004;BME280;15330;51.234;6.754;2023-04-24T04:01:11;99644.44;;;9.70;100.00
28004;BME280;15330;51.234;6.754;2023-04-24T04:03:37;99654.88;;;9.65;100.00
28004;BME280;15330;51.234;6.754;2023-04-24T04:06:02;99654.78;;;9.73;100.00
28004;BME280;15330;51.234;6.754;2023-04-24T04:08:28;99654.22;;;9.63;100.00
28004;BME280;15330;51.234;6.754;2023-04-24T04:10:53;99661.66;;;9.67;100.00
28004;BME280;15330;51.234;6.754;2023-04-24T04:13:18;99660.28;;;9.56;100.00
28004;BME280;15330;51.234;6.754;2023-04-24T04:15:44;99654.03;;;9.49;100.00
28004;BME280;15330;51.234;6.754;2023-04-24T04:18:09;99663.06;;;9.48;100.00
28004;BME280;15330;51.234;6.754;2023-04-24T04:20:35;99662.34;;;9.54;100.00
28004;BME280;15330;51.234;6.754;2023-04-24T04:23:00;99662.22;;;9.48;100.00
28004;BME280;15330;51.234;6.754;2023-04-24T04:25:25;99661.03;;;9.50;100.00
28004;BME280;15330;51.234;6.754;2023-04-24T04:27:51;99663.34;;;9.53;100.00
28004;BME280;15330;51.234;6.754;2023-04-24T04:30:17;99678.72;;;9.51;100.00
28004;BME280;15330;51.234;6.754;2023-04-24T04:32:43;99668.97;;;9.44;100.00
28004;BME280;15330;51.234;6.754;2023-04-24T04:35:09;99671.91;;;9.49;100.00
28004;BME280;15330;51.234;6.754;2023-04-24T04:37:35;99668.97;;;9.44;100.00
28004;BME280;15330;51.234;6.754;2023-04-24T04:40:01;99680.81;;;9.56;100.00
28004;BME280;15330;51.234;6.754;2023-04-24T04:42:31;99684.16;;;9.43;100.00
28004;BME280;15330;51.234;6.754;2023-04-24T04:44:57;99680.19;;;9.54;100.00
28004;BME280;15330;51.234;6.754;2023-04-24T04:47:23;99695.09;;;9.48;100.00
28004;BME280;15330;51.234;6.754;2023-04-24T04:49:48;99686.81;;;9.43;100.00
28004;BME280;15330;51.234;6.754;2023-04-24T04:52:14;99684.31;;;9.12;100.00
28004;BME280;15330;51.234;6.754;2023-04-24T04:54:39;99680.69;;;9.05;100.00
28004;BME280;15330;51.234;6.754;2023-04-24T04:57:05;99688.31;;;9.08;100.00
28004;BME280;15330;51.234;6.754;2023-04-24T04:59:31;99680.69;;;9.05;100.00
28004;BME280;15330;51.234;6.754;2023-04-24T05:01:56;99684.69;;;8.87;100.00
28004;BME280;15330;51.234;6.754;2023-04-24T05:04:22;99685.03;;;8.83;100.00
28004;BME280;15330;51.234;6.754;2023-04-24T05:06:47;99683.34;;;9.05;100.00
28004;BME280;15330;51.234;6.754;2023-04-24T05:09:13;99689.91;;;9.03;100.00
28004;BME280;15330;51.234;6.754;2023-04-24T05:11:38;99681.59;;;8.98;100.00
28004;BME280;15330;51.234;6.754;2023-04-24T05:14:03;99686.63;;;9.30;100.00
28004;BME280;15330;51.234;6.754;2023-04-24T05:16:29;99692.78;;;9.31;100.00
28004;BME280;15330;51.234;6.754;2023-04-24T05:18:55;99696.06;;;9.18;100.00
28004;BME280;15330;51.234;6.754;2023-04-24T05:21:21;99695.81;;;9.13;100.00
28004;BME280;15330;51.234;6.754;2023-04-24T05:23:46;99698.41;;;8.98;100.00
28004;BME280;15330;51.234;6.754;2023-04-24T05:26:13;99692.44;;;8.96;100.00
28004;BME280;15330;51.234;6.754;2023-04-24T05:28:38;99701.25;;;8.97;100.00
28004;BME280;15330;51.234;6.754;2023-04-24T05:31:04;99702.66;;;8.93;100.00
28004;BME280;15330;51.234;6.754;2023-04-24T05:33:29;99695.94;;;8.97;100.00
28004;BME280;15330;51.234;6.754;2023-04-24T05:35:55;99691.34;;;8.91;100.00
28004;BME280;15330;51.234;6.754;2023-04-24T05:38:21;99691.56;;;8.81;100.00
28004;BME280;15330;51.234;6.754;2023-04-24T05:40:46;99691.38;;;8.82;100.00
28004;BME280;15330;51.234;6.754;2023-04-24T05:43:12;99697.91;;;8.80;100.00
28004;BME280;15330;51.234;6.754;2023-04-24T05:45:38;99694.59;;;8.78;100.00
28004;BME280;15330;51.234;6.754;2023-04-24T05:48:04;99698.31;;;8.92;100.00
28004;BME280;15330;51.234;6.754;2023-04-24T05:50:29;99702.94;;;8.98;100.00
28004;BME280;15330;51.234;6.754;2023-04-24T05:52:55;99705.66;;;8.90;100.00
28004;BME280;15330;51.234;6.754;2023-04-24T05:55:24;99706.69;;;8.89;100.00
28004;BME280;15330;51.234;6.754;2023-04-24T05:57:49;99694.88;;;8.83;100.00
28004;BME280;15330;51.234;6.754;2023-04-24T06:00:15;99717.66;;;8.71;100.00
28004;BME280;15330;51.234;6.754;2023-04-24T06:02:41;99708.22;;;8.60;100.00
28004;BME280;15330;51.234;6.754;2023-04-24T06:05:07;99715.09;;;8.77;100.00
28004;BME280;15330;51.234;6.754;2023-04-24T06:07:33;99701.66;;;8.71;100.00
28004;BME280;15330;51.234;6.754;2023-04-24T06:09:59;99698.19;;;8.85;100.00
28004;BME280;15330;51.234;6.754;2023-04-24T06:12:25;99705.94;;;8.95;100.00
28004;BME280;15330;51.234;6.754;2023-04-24T06:14:51;99691.38;;;8.82;100.00
28004;BME280;15330;51.234;6.754;2023-04-24T06:17:16;99688.91;;;8.81;100.00
28004;BME280;15330;51.234;6.754;2023-04-24T06:19:42;99695.53;;;8.85;100.00
28004;BME280;15330;51.234;6.754;2023-04-24T06:22:10;99701.69;;;8.86;100.00
28004;BME280;15330;51.234;6.754;2023-04-24T06:24:36;99706.56;;;8.82;100.00
28004;BME280;15330;51.234;6.754;2023-04-24T06:27:01;99714.13;;;8.93;100.00
28004;BME280;15330;51.234;6.754;2023-04-24T06:29:27;99707.81;;;8.71;100.00
28004;BME280;15330;51.234;6.754;2023-04-24T06:31:53;99706.44;;;8.75;100.00
28004;BME280;15330;51.234;6.754;2023-04-24T06:34:18;99719.06;;;8.81;100.00
28004;BME280;15330;51.234;6.754;2023-04-24T06:36:44;99717.69;;;8.63;100.00
28004;BME280;15330;51.234;6.754;2023-04-24T06:39:10;99707.16;;;8.69;100.00
28004;BME280;15330;51.234;6.754;2023-04-24T06:41:35;99714.78;;;8.72;100.00
28004;BME280;15330;51.234;6.754;2023-04-24T06:44:00;99717.25;;;8.82;100.00
28004;BME280;15330;51.234;6.754;2023-04-24T06:46:26;99711.50;;;8.70;100.00
28004;BME280;15330;51.234;6.754;2023-04-24T06:48:53;99708.41;;;8.81;100.00
28004;BME280;15330;51.234;6.754;2023-04-24T06:51:25;99705.44;;;8.76;100.00
28004;BME280;15330;51.234;6.754;2023-04-24T06:53:53;99714.69;;;8.66;100.00
28004;BME280;15330;51.234;6.754;2023-04-24T06:56:19;99717.91;;;8.53;100.00
28004;BME280;15330;51.234;6.754;2023-04-24T06:58:45;99719.00;;;8.67;100.00
28004;BME280;15330;51.234;6.754;2023-04-24T07:01:11;99725.06;;;8.61;100.00
28004;BME280;15330;51.234;6.754;2023-04-24T07:03:37;99725.22;;;8.59;100.00
28004;BME280;15330;51.234;6.754;2023-04-24T07:06:02;99722.25;;;8.54;100.00
28004;BME280;15330;51.234;6.754;2023-04-24T07:08:29;99726.41;;;8.57;100.00
28004;BME280;15330;51.234;6.754;2023-04-24T07:10:56;99718.47;;;8.49;100.00
28004;BME280;15330;51.234;6.754;2023-04-24T07:13:22;99716.34;;;8.67;100.00
28004;BME280;15330;51.234;6.754;2023-04-24T07:15:48;99719.59;;;8.54;100.00
28004;BME280;15330;51.234;6.754;2023-04-24T07:18:16;99722.38;;;8.30;100.00
28004;BME280;15330;51.234;6.754;2023-04-24T07:20:41;99724.38;;;8.36;100.00
28004;BME280;15330;51.234;6.754;2023-04-24T07:23:06;99727.88;;;8.36;100.00
28004;BME280;15330;51.234;6.754;2023-04-24T07:25:32;99730.19;;;8.39;100.00
28004;BME280;15330;51.234;6.754;2023-04-24T07:27:58;99740.19;;;8.37;100.00
28004;BME280;15330;51.234;6.754;2023-04-24T07:30:23;99744.91;;;8.19;100.00
28004;BME280;15330;51.234;6.754;2023-04-24T07:32:48;99753.69;;;8.36;100.00
28004;BME280;15330;51.234;6.754;2023-04-24T07:35:14;99759.78;;;8.05;100.00
28004;BME280;15330;51.234;6.754;2023-04-24T07:37:39;99752.97;;;8.03;100.00
28004;BME280;15330;51.234;6.754;2023-04-24T07:40:05;99764.81;;;7.92;100.00
28004;BME280;15330;51.234;6.754;2023-04-24T07:42:31;99763.94;;;8.00;100.00
28004;BME280;15330;51.234;6.754;2023-04-24T07:44:56;99767.31;;;7.94;100.00
28004;BME280;15330;51.234;6.754;2023-04-24T07:47:22;99759.53;;;7.84;100.00
28004;BME280;15330;51.234;6.754;2023-04-24T07:49:47;99757.56;;;7.70;100.00
28004;BME280;15330;51.234;6.754;2023-04-24T07:52:13;99757.28;;;7.57;100.00
28004;BME280;15330;51.234;6.754;2023-04-24T07:54:38;99758.47;;;7.46;100.00
28004;BME280;15330;51.234;6.754;2023-04-24T07:57:03;99750.78;;;7.51;100.00
28004;BME280;15330;51.234;6.754;2023-04-24T07:59:29;99745.91;;;7.71;100.00
28004;BME280;15330;51.234;6.754;2023-04-24T08:01:54;99758.41;;;7.62;100.00
28004;BME280;15330;51.234;6.754;2023-04-24T08:04:20;99763.75;;;7.62;100.00
28004;BME280;15330;51.234;6.754;2023-04-24T08:06:47;99775.88;;;7.65;100.00
28004;BME280;15330;51.234;6.754;2023-04-24T08:09:12;99776.84;;;7.72;100.00
28004;BME280;15330;51.234;6.754;2023-04-24T08:11:38;99770.53;;;7.73;100.00
28004;BME280;15330;51.234;6.754;2023-04-24T08:14:03;99784.53;;;7.67;100.00
28004;BME280;15330;51.234;6.754;2023-04-24T08:16:29;99786.38;;;7.66;100.00
28004;BME280;15330;51.234;6.754;2023-04-24T08:18:54;99812.28;;;7.72;100.00
28004;BME280;15330;51.234;6.754;2023-04-24T08:21:19;99817.47;;;7.66;100.00
28004;BME280;15330;51.234;6.754;2023-04-24T08:23:46;99808.78;;;7.80;100.00
28004;BME280;15330;51.234;6.754;2023-04-24T08:26:12;99806.97;;;7.89;100.00
28004;BME280;15330;51.234;6.754;2023-04-24T08:28:37;99815.38;;;8.00;100.00
28004;BME280;15330;51.234;6.754;2023-04-24T08:31:03;99824.72;;;7.96;100.00
28004;BME280;15330;51.234;6.754;2023-04-24T08:33:28;99819.38;;;8.04;100.00
28004;BME280;15330;51.234;6.754;2023-04-24T08:36:00;99828.03;;;8.06;100.00
28004;BME280;15330;51.234;6.754;2023-04-24T08:38:26;99826.97;;;8.24;100.00
28004;BME280;15330;51.234;6.754;2023-04-24T08:40:52;99839.94;;;8.35;100.00
28004;BME280;15330;51.234;6.754;2023-04-24T08:43:18;99840.09;;;8.72;100.00
28004;BME280;15330;51.234;6.754;2023-04-24T08:45:45;99841.63;;;8.67;100.00
28004;BME280;15330;51.234;6.754;2023-04-24T08:48:11;99853.44;;;8.72;100.00
28004;BME280;15330;51.234;6.754;2023-04-24T08:50:37;99860.50;;;8.57;100.00
28004;BME280;15330;51.234;6.754;2023-04-24T08:53:03;99861.88;;;8.45;100.00
28004;BME280;15330;51.234;6.754;2023-04-24T08:55:30;99873.09;;;8.32;100.00
28004;BME280;15330;51.234;6.754;2023-04-24T08:57:56;99865.59;;;8.36;100.00
28004;BME280;15330;51.234;6.754;2023-04-24T09:00:22;99889.06;;;8.24;100.00
28004;BME280;15330;51.234;6.754;2023-04-24T09:02:49;99891.75;;;8.24;100.00
28004;BME280;15330;51.234;6.754;2023-04-24T09:05:16;99899.44;;;8.19;100.00
28004;BME280;15330;51.234;6.754;2023-04-24T09:07:45;99918.06;;;8.19;100.00
28004;BME280;15330;51.234;6.754;2023-04-24T09:10:13;99912.88;;;8.26;100.00
28004;BME280;15330;51.234;6.754;2023-04-24T09:12:41;99928.72;;;8.11;100.00
28004;BME280;15330;51.234;6.754;2023-04-24T09:15:07;99935.25;;;8.08;100.00
28004;BME280;15330;51.234;6.754;2023-04-24T09:17:33;99938.22;;;8.05;100.00
28004;BME280;15330;51.234;6.754;2023-04-24T09:19:59;99939.56;;;8.18;100.00
28004;BME280;15330;51.234;6.754;2023-04-24T09:22:24;99951.69;;;8.20;100.00
28004;BME280;15330;51.234;6.754;2023-04-24T09:25:01;99973.50;;;8.16;100.00
28004;BME280;15330;51.234;6.754;2023-04-24T09:27:28;99959.66;;;8.20;100.00
28004;BME280;15330;51.234;6.754;2023-04-24T09:29:57;99976.69;;;8.19;100.00
28004;BME280;15330;51.234;6.754;2023-04-24T09:32:23;99982.00;;;8.11;100.00
28004;BME280;15330;51.234;6.754;2023-04-24T09:35:13;99999.66;;;8.04;100.00
28004;BME280;15330;51.234;6.754;2023-04-24T09:37:42;100003.97;;;8.05;100.00
28004;BME280;15330;51.234;6.754;2023-04-24T09:40:09;100009.78;;;8.00;100.00
28004;BME280;15330;51.234;6.754;2023-04-24T09:42:36;100010.13;;;8.14;100.00
28004;BME280;15330;51.234;6.754;2023-04-24T09:45:02;100010.16;;;8.38;100.00
28004;BME280;15330;51.234;6.754;2023-04-24T09:47:35;100012.66;;;8.39;100.00
28004;BME280;15330;51.234;6.754;2023-04-24T09:50:09;100024.78;;;8.42;100.00
28004;BME280;15330;51.234;6.754;2023-04-24T09:52:34;100030.78;;;8.44;100.00
28004;BME280;15330;51.234;6.754;2023-04-24T09:55:00;100017.59;;;8.67;100.00
28004;BME280;15330;51.234;6.754;2023-04-24T09:57:25;100034.28;;;8.61;100.00
28004;BME280;15330;51.234;6.754;2023-04-24T09:59:53;100044.41;;;8.81;100.00
28004;BME280;15330;51.234;6.754;2023-04-24T10:02:19;100054.06;;;8.74;100.00
28004;BME280;15330;51.234;6.754;2023-04-24T10:04:57;100050.06;;;8.78;100.00
28004;BME280;15330;51.234;6.754;2023-04-24T10:07:27;100060.88;;;8.85;100.00
28004;BME280;15330;51.234;6.754;2023-04-24T10:09:52;100060.41;;;8.81;100.00
28004;BME280;15330;51.234;6.754;2023-04-24T10:12:18;100065.38;;;8.84;100.00
28004;BME280;15330;51.234;6.754;2023-04-24T10:14:45;100070.56;;;8.78;100.00
28004;BME280;15330;51.234;6.754;2023-04-24T10:17:11;100064.00;;;8.97;100.00
28004;BME280;15330;51.234;6.754;2023-04-24T10:19:38;100072.38;;;8.86;100.00
28004;BME280;15330;51.234;6.754;2023-04-24T10:22:06;100070.72;;;8.84;100.00
28004;BME280;15330;51.234;6.754;2023-04-24T10:24:33;100074.16;;;9.09;100.00
28004;BME280;15330;51.234;6.754;2023-04-24T10:26:59;100089.69;;;8.98;100.00
28004;BME280;15330;51.234;6.754;2023-04-24T10:29:26;100079.25;;;9.27;100.00
28004;BME280;15330;51.234;6.754;2023-04-24T10:31:53;100087.19;;;8.96;100.00
28004;BME280;15330;51.234;6.754;2023-04-24T10:34:20;100085.47;;;9.19;100.00
28004;BME280;15330;51.234;6.754;2023-04-24T10:36:51;100098.34;;;9.08;100.00
28004;BME280;15330;51.234;6.754;2023-04-24T10:39:18;100103.34;;;9.11;100.00
28004;BME280;15330;51.234;6.754;2023-04-24T10:41:44;100110.88;;;8.91;100.00
28004;BME280;15330;51.234;6.754;2023-04-24T10:44:15;100106.03;;;9.03;100.00
28004;BME280;15330;51.234;6.754;2023-04-24T10:46:45;100113.03;;;8.96;100.00
28004;BME280;15330;51.234;6.754;2023-04-24T10:49:12;100120.88;;;8.89;100.00
28004;BME280;15330;51.234;6.754;2023-04-24T10:51:49;100133.06;;;8.67;100.00
28004;BME280;15330;51.234;6.754;2023-04-24T10:54:27;100131.88;;;8.94;100.00
28004;BME280;15330;51.234;6.754;2023-04-24T10:59:45;100133.13;;;9.31;100.00
28004;BME280;15330;51.234;6.754;2023-04-24T11:02:10;100139.72;;;9.51;100.00
28004;BME280;15330;51.234;6.754;2023-04-24T11:04:36;100144.97;;;9.75;100.00
28004;BME280;15330;51.234;6.754;2023-04-24T11:07:04;100145.63;;;10.08;100.00
28004;BME280;15330;51.234;6.754;2023-04-24T11:09:30;100150.50;;;10.05;100.00
28004;BME280;15330;51.234;6.754;2023-04-24T11:12:07;100144.50;;;9.72;100.00
28004;BME280;15330;51.234;6.754;2023-04-24T11:17:36;100168.84;;;9.22;100.00
28004;BME280;15330;51.234;6.754;2023-04-24T11:20:10;100172.03;;;9.17;100.00
28004;BME280;15330;51.234;6.754;2023-04-24T11:22:38;100166.84;;;9.24;100.00
28004;BME280;15330;51.234;6.754;2023-04-24T11:25:07;100174.31;;;9.44;100.00
28004;BME280;15330;51.234;6.754;2023-04-24T11:27:42;100181.38;;;9.21;100.00
28004;BME280;15330;51.234;6.754;2023-04-24T11:30:08;100185.97;;;9.35;100.00
28004;BME280;15330;51.234;6.754;2023-04-24T11:32:41;100186.81;;;9.44;100.00
28004;BME280;15330;51.234;6.754;2023-04-24T11:35:16;100197.03;;;9.32;100.00
28004;BME280;15330;51.234;6.754;2023-04-24T11:37:44;100191.44;;;9.97;100.00
28004;BME280;15330;51.234;6.754;2023-04-24T11:40:12;100192.59;;;10.03;100.00
28004;BME280;15330;51.234;6.754;2023-04-24T11:42:45;100192.03;;;10.15;100.00
28004;BME280;15330;51.234;6.754;2023-04-24T11:45:12;100201.88;;;10.23;100.00
28004;BME280;15330;51.234;6.754;2023-04-24T11:47:39;100200.06;;;10.07;100.00
28004;BME280;15330;51.234;6.754;2023-04-24T11:50:07;100195.53;;;10.16;100.00
28004;BME280;15330;51.234;6.754;2023-04-24T11:52:36;100195.19;;;9.80;100.00
28004;BME280;15330;51.234;6.754;2023-04-24T11:55:02;100212.13;;;9.64;100.00
28004;BME280;15330;51.234;6.754;2023-04-24T11:57:29;100200.69;;;9.78;100.00
28004;BME280;15330;51.234;6.754;2023-04-24T11:59:59;100219.22;;;9.80;100.00
28004;BME280;15330;51.234;6.754;2023-04-24T12:02:26;100224.81;;;9.62;100.00
28004;BME280;15330;51.234;6.754;2023-04-24T12:04:53;100227.94;;;9.74;100.00
28004;BME280;15330;51.234;6.754;2023-04-24T12:07:19;100239.91;;;9.94;100.00
28004;BME280;15330;51.234;6.754;2023-04-24T12:12:11;100232.72;;;9.86;100.00
28004;BME280;15330;51.234;6.754;2023-04-24T12:14:52;100230.72;;;9.97;100.00
28004;BME280;15330;51.234;6.754;2023-04-24T12:17:24;100232.53;;;9.96;100.00
28004;BME280;15330;51.234;6.754;2023-04-24T12:19:49;100230.44;;;10.14;100.00
28004;BME280;15330;51.234;6.754;2023-04-24T12:22:16;100231.13;;;10.08;100.00
28004;BME280;15330;51.234;6.754;2023-04-24T12:25:03;100247.34;;;10.46;100.00
28004;BME280;15330;51.234;6.754;2023-04-24T12:27:31;100254.00;;;10.50;100.00
28004;BME280;15330;51.234;6.754;2023-04-24T12:29:59;100248.75;;;10.64;100.00
28004;BME280;15330;51.234;6.754;2023-04-24T12:32:25;100248.38;;;10.68;100.00
28004;BME280;15330;51.234;6.754;2023-04-24T12:34:51;100254.19;;;10.94;100.00
28004;BME280;15330;51.234;6.754;2023-04-24T12:37:17;100257.47;;;10.81;98.27
28004;BME280;15330;51.234;6.754;2023-04-24T12:39:59;100257.16;;;10.53;94.48
28004;BME280;15330;51.234;6.754;2023-04-24T12:42:26;100268.50;;;10.86;98.11
28004;BME280;15330;51.234;6.754;2023-04-24T12:44:56;100266.88;;;10.77;96.00
28004;BME280;15330;51.234;6.754;2023-04-24T12:47:22;100266.50;;;10.80;95.53
28004;BME280;15330;51.234;6.754;2023-04-24T12:49:48;100264.66;;;10.81;95.02
28004;BME280;15330;51.234;6.754;2023-04-24T12:52:15;100270.38;;;11.00;94.72
28004;BME280;15330;51.234;6.754;2023-04-24T12:54:42;100273.13;;;10.92;93.12
28004;BME280;15330;51.234;6.754;2023-04-24T12:57:07;100269.06;;;10.74;91.17
28004;BME280;15330;51.234;6.754;2023-04-24T12:59:33;100276.38;;;10.80;92.05
28004;BME280;15330;51.234;6.754;2023-04-24T13:01:58;100279.88;;;11.03;92.13